sensor_id;sensor_type;location;lat;lon;timestamp;temperature;humidity
13074;DHT22;6603;47.066;15.396;2023-07-08T00:00:23;15.10;99.90
13074;DHT22;6603;47.066;15.396;2023-07-08T00:02:50;15.10;99.90
13074;DHT22;6603;47.066;15.396;2023-07-08T00:05:18;15.20;99.90
13074;DHT22;6603;47.066;15.396;2023-07-08T00:07:45;15.00;99.90
13074;DHT22;6603;47.066;15.396;2023-07-08T00:10:12;15.10;99.90
13074;DHT22;6603;47.066;15.396;2023-07-08T00:12:39;15.10;99.90
13074;DHT22;6603;47.066;15.396;2023-07-08T00:15:05;15.00;99.90
13074;DHT22;6603;47.066;15.396;2023-07-08T00:17:31;15.20;99.90
13074;DHT22;6603;47.066;15.396;2023-07-08T00:19:57;15.00;99.90
13074;DHT22;6603;47.066;15.396;2023-07-08T00:22:23;14.90;99.90
13074;DHT22;6603;47.066;15.396;2023-07-08T00:24:53;15.00;99.90
13074;DHT22;6603;47.066;15.396;2023-07-08T00:27:19;14.80;99.90
13074;DHT22;6603;47.066;15.396;2023-07-08T00:29:45;14.80;99.90
13074;DHT22;6603;47.066;15.396;2023-07-08T00:32:13;14.90;99.90
13074;DHT22;6603;47.066;15.396;2023-07-08T00:34:40;15.00;99.90
13074;DHT22;6603;47.066;15.396;2023-07-08T00:37:13;14.70;99.90
13074;DHT22;6603;47.066;15.396;2023-07-08T00:39:40;15.00;99.90
13074;DHT22;6603;47.066;15.396;2023-07-08T00:42:21;14.80;99.90
13074;DHT22;6603;47.066;15.396;2023-07-08T00:44:50;14.80;99.90
13074;DHT22;6603;47.066;15.396;2023-07-08T00:47:16;14.70;99.90
13074;DHT22;6603;47.066;15.396;2023-07-08T00:49:49;14.70;99.90
13074;DHT22;6603;47.066;15.396;2023-07-08T00:52:37;14.70;99.90
13074;DHT22;6603;47.066;15.396;2023-07-08T00:55:07;14.60;99.90
13074;DHT22;6603;47.066;15.396;2023-07-08T00:57:39;14.30;99.90
13074;DHT22;6603;47.066;15.396;2023-07-08T01:00:11;14.30;99.90
13074;DHT22;6603;47.066;15.396;2023-07-08T01:02:48;14.40;99.90
13074;DHT22;6603;47.066;15.396;2023-07-08T01:05:23;14.60;99.90
13074;DHT22;6603;47.066;15.396;2023-07-08T01:07:57;14.70;99.90
13074;DHT22;6603;47.066;15.396;2023-07-08T01:10:39;14.70;99.90
13074;DHT22;6603;47.066;15.396;2023-07-08T01:13:09;14.70;99.90
13074;DHT22;6603;47.066;15.396;2023-07-08T01:15:40;14.50;99.90
13074;DHT22;6603;47.066;15.396;2023-07-08T01:18:09;14.70;99.90
13074;DHT22;6603;47.066;15.396;2023-07-08T02:13:07;14.60;99.90
13074;DHT22;6603;47.066;15.396;2023-07-08T02:15:33;14.60;99.90
13074;DHT22;6603;47.066;15.396;2023-07-08T02:17:59;14.40;99.90
13074;DHT22;6603;47.066;15.396;2023-07-08T02:20:25;14.40;99.90
13074;DHT22;6603;47.066;15.396;2023-07-08T02:22:50;14.40;99.90
13074;DHT22;6603;47.066;15.396;2023-07-08T02:25:16;14.40;99.90
13074;DHT22;6603;47.066;15.396;2023-07-08T02:27:42;14.40;99.90
13074;DHT22;6603;47.066;15.396;2023-07-08T02:30:09;14.10;99.90
13074;DHT22;6603;47.066;15.396;2023-07-08T02:32:36;14.30;99.90
13074;DHT22;6603;47.066;15.396;2023-07-08T02:35:08;14.20;99.90
13074;DHT22;6603;47.066;15.396;2023-07-08T02:37:35;14.10;99.90
13074;DHT22;6603;47.066;15.396;2023-07-08T02:40:01;13.90;99.90
13074;DHT22;6603;47.066;15.396;2023-07-08T02:42:27;14.20;99.90
13074;DHT22;6603;47.066;15.396;2023-07-08T02:44:53;14.10;99.90
13074;DHT22;6603;47.066;15.396;2023-07-08T02:47:19;14.10;99.90
13074;DHT22;6603;47.066;15.396;2023-07-08T02:49:45;14.30;99.90
13074;DHT22;6603;47.066;15.396;2023-07-08T02:52:11;14.30;99.90
13074;DHT22;6603;47.066;15.396;2023-07-08T02:54:38;14.40;99.90
13074;DHT22;6603;47.066;15.396;2023-07-08T02:57:04;14.00;99.90
13074;DHT22;6603;47.066;15.396;2023-07-08T02:59:30;14.10;99.90
13074;DHT22;6603;47.066;15.396;2023-07-08T03:01:56;14.10;99.90
13074;DHT22;6603;47.066;15.396;2023-07-08T03:04:22;14.20;99.90
13074;DHT22;6603;47.066;15.396;2023-07-08T03:06:50;14.20;99.90
13074;DHT22;6603;47.066;15.396;2023-07-08T03:09:17;14.20;99.90
13074;DHT22;6603;47.066;15.396;2023-07-08T03:11:43;14.30;99.90
13074;DHT22;6603;47.066;15.396;2023-07-08T03:14:09;13.90;99.90
13074;DHT22;6603;47.066;15.396;2023-07-08T03:16:34;14.10;99.90
13074;DHT22;6603;47.066;15.396;2023-07-08T03:19:00;13.90;99.90
13074;DHT22;6603;47.066;15.396;2023-07-08T03:21:27;13.80;99.90
13074;DHT22;6603;47.066;15.396;2023-07-08T03:23:52;14.20;99.90
13074;DHT22;6603;47.066;15.396;2023-07-08T03:26:22;14.20;99.90
13074;DHT22;6603;47.066;15.396;2023-07-08T03:28:49;14.00;99.90
13074;DHT22;6603;47.066;15.396;2023-07-08T03:31:15;14.10;99.90
13074;DHT22;6603;47.066;15.396;2023-07-08T03:33:41;14.20;99.90
13074;DHT22;6603;47.066;15.396;2023-07-08T03:36:16;14.30;99.90
13074;DHT22;6603;47.066;15.396;2023-07-08T03:38:50;14.10;99.90
13074;DHT22;6603;47.066;15.396;2023-07-08T03:41:16;14.10;99.90
13074;DHT22;6603;47.066;15.396;2023-07-08T03:43:42;14.20;99.90
13074;DHT22;6603;47.066;15.396;2023-07-08T03:46:12;14.10;99.90
13074;DHT22;6603;47.066;15.396;2023-07-08T03:48:38;14.20;99.90
13074;DHT22;6603;47.066;15.396;2023-07-08T03:51:08;14.10;99.90
13074;DHT22;6603;47.066;15.396;2023-07-08T03:53:35;14.00;99.90
13074;DHT22;6603;47.066;15.396;2023-07-08T03:56:01;13.90;99.90
13074;DHT22;6603;47.066;15.396;2023-07-08T03:58:26;14.20;99.90
13074;DHT22;6603;47.066;15.396;2023-07-08T04:00:52;14.20;99.90
13074;DHT22;6603;47.066;15.396;2023-07-08T04:03:18;14.30;99.90
13074;DHT22;6603;47.066;15.396;2023-07-08T04:05:44;14.30;99.90
13074;DHT22;6603;47.066;15.396;2023-07-08T04:08:10;14.40;99.90
13074;DHT22;6603;47.066;15.396;2023-07-08T04:10:36;14.40;99.90
13074;DHT22;6603;47.066;15.396;2023-07-08T04:13:02;14.50;99.90
13074;DHT22;6603;47.066;15.396;2023-07-08T04:15:28;14.60;99.90
13074;DHT22;6603;47.066;15.396;2023-07-08T04:17:54;14.70;99.90
13074;DHT22;6603;47.066;15.396;2023-07-08T04:20:23;14.70;99.90
13074;DHT22;6603;47.066;15.396;2023-07-08T04:22:48;14.80;99.90
13074;DHT22;6603;47.066;15.396;2023-07-08T04:25:14;14.90;99.90
13074;DHT22;6603;47.066;15.396;2023-07-08T04:27:41;14.90;99.90
13074;DHT22;6603;47.066;15.396;2023-07-08T04:30:18;14.90;99.90
13074;DHT22;6603;47.066;15.396;2023-07-08T04:32:45;14.90;99.90
13074;DHT22;6603;47.066;15.396;2023-07-08T04:35:11;15.00;99.90
13074;DHT22;6603;47.066;15.396;2023-07-08T04:37:37;15.00;99.90
13074;DHT22;6603;47.066;15.396;2023-07-08T04:40:04;15.20;99.90
13074;DHT22;6603;47.066;15.396;2023-07-08T04:42:30;15.30;99.90
13074;DHT22;6603;47.066;15.396;2023-07-08T04:44:57;15.30;99.90
13074;DHT22;6603;47.066;15.396;2023-07-08T04:47:23;15.50;99.90
13074;DHT22;6603;47.066;15.396;2023-07-08T04:49:48;15.70;99.90
13074;DHT22;6603;47.066;15.396;2023-07-08T04:52:14;15.90;99.90
13074;DHT22;6603;47.066;15.396;2023-07-08T04:54:40;16.00;99.90
13074;DHT22;6603;47.066;15.396;2023-07-08T04:57:07;16.10;99.90
13074;DHT22;6603;47.066;15.396;2023-07-08T04:59:33;16.20;99.90
13074;DHT22;6603;47.066;15.396;2023-07-08T05:02:00;16.20;99.90
13074;DHT22;6603;47.066;15.396;2023-07-08T05:04:26;16.30;99.90
13074;DHT22;6603;47.066;15.396;2023-07-08T05:06:52;16.30;99.90
13074;DHT22;6603;47.066;15.396;2023-07-08T05:09:18;16.30;99.90
13074;DHT22;6603;47.066;15.396;2023-07-08T05:11:44;16.40;99.90
13074;DHT22;6603;47.066;15.396;2023-07-08T05:14:12;16.40;99.90
13074;DHT22;6603;47.066;15.396;2023-07-08T05:16:38;16.50;99.90
13074;DHT22;6603;47.066;15.396;2023-07-08T05:19:04;16.60;99.90
13074;DHT22;6603;47.066;15.396;2023-07-08T05:21:30;16.70;99.90
13074;DHT22;6603;47.066;15.396;2023-07-08T05:24:01;16.70;99.90
13074;DHT22;6603;47.066;15.396;2023-07-08T05:26:27;16.80;99.90
13074;DHT22;6603;47.066;15.396;2023-07-08T05:28:53;16.80;99.90
13074;DHT22;6603;47.066;15.396;2023-07-08T05:31:18;17.00;99.90
13074;DHT22;6603;47.066;15.396;2023-07-08T05:33:44;17.10;99.90
13074;DHT22;6603;47.066;15.396;2023-07-08T05:36:10;17.20;99.90
13074;DHT22;6603;47.066;15.396;2023-07-08T05:38:35;17.30;99.90
13074;DHT22;6603;47.066;15.396;2023-07-08T05:41:01;17.50;99.90
13074;DHT22;6603;47.066;15.396;2023-07-08T05:43:27;17.60;99.90
13074;DHT22;6603;47.066;15.396;2023-07-08T05:45:58;17.70;90.90
13074;DHT22;6603;47.066;15.396;2023-07-08T05:48:24;17.90;1.00
13074;DHT22;6603;47.066;15.396;2023-07-08T05:50:50;18.00;1.00
13074;DHT22;6603;47.066;15.396;2023-07-08T05:53:18;18.20;25.80
13074;DHT22;6603;47.066;15.396;2023-07-08T05:55:47;18.30;1.00
13074;DHT22;6603;47.066;15.396;2023-07-08T05:58:13;18.40;1.00
13074;DHT22;6603;47.066;15.396;2023-07-08T06:00:43;18.60;42.80
13074;DHT22;6603;47.066;15.396;2023-07-08T06:03:09;18.80;37.30
13074;DHT22;6603;47.066;15.396;2023-07-08T06:05:37;18.80;1.00
13074;DHT22;6603;47.066;15.396;2023-07-08T06:08:03;18.90;1.00
13074;DHT22;6603;47.066;15.396;2023-07-08T06:10:29;18.90;1.00
13074;DHT22;6603;47.066;15.396;2023-07-08T06:12:55;19.10;1.00
13074;DHT22;6603;47.066;15.396;2023-07-08T06:15:20;19.10;1.00
13074;DHT22;6603;47.066;15.396;2023-07-08T06:17:46;19.30;1.00
13074;DHT22;6603;47.066;15.396;2023-07-08T06:20:12;19.40;1.00
13074;DHT22;6603;47.066;15.396;2023-07-08T06:22:38;19.60;1.00
13074;DHT22;6603;47.066;15.396;2023-07-08T06:25:04;19.70;1.00
13074;DHT22;6603;47.066;15.396;2023-07-08T06:27:30;19.80;1.00
13074;DHT22;6603;47.066;15.396;2023-07-08T06:29:56;19.90;1.00
13074;DHT22;6603;47.066;15.396;2023-07-08T06:32:22;20.00;1.00
13074;DHT22;6603;47.066;15.396;2023-07-08T06:34:47;20.10;1.00
13074;DHT22;6603;47.066;15.396;2023-07-08T06:37:13;20.20;99.90
13074;DHT22;6603;47.066;15.396;2023-07-08T06:39:39;20.40;1.00
13074;DHT22;6603;47.066;15.396;2023-07-08T06:42:06;20.60;1.00
13074;DHT22;6603;47.066;15.396;2023-07-08T06:44:31;20.70;99.90
13074;DHT22;6603;47.066;15.396;2023-07-08T06:46:57;20.80;99.90
13074;DHT22;6603;47.066;15.396;2023-07-08T06:49:23;20.90;1.00
13074;DHT22;6603;47.066;15.396;2023-07-08T06:51:49;21.00;1.00
13074;DHT22;6603;47.066;15.396;2023-07-08T06:54:15;21.00;99.90
13074;DHT22;6603;47.066;15.396;2023-07-08T06:56:41;21.10;1.00
13074;DHT22;6603;47.066;15.396;2023-07-08T06:59:07;21.30;1.00
13074;DHT22;6603;47.066;15.396;2023-07-08T07:01:33;21.50;34.40
13074;DHT22;6603;47.066;15.396;2023-07-08T07:03:59;21.60;1.00
13074;DHT22;6603;47.066;15.396;2023-07-08T07:06:26;21.60;99.90
13074;DHT22;6603;47.066;15.396;2023-07-08T07:08:51;21.80;1.00
13074;DHT22;6603;47.066;15.396;2023-07-08T07:11:17;22.00;99.90
13074;DHT22;6603;47.066;15.396;2023-07-08T07:13:45;22.10;1.00
13074;DHT22;6603;47.066;15.396;2023-07-08T07:16:11;22.20;1.00
13074;DHT22;6603;47.066;15.396;2023-07-08T07:18:37;22.40;1.00
13074;DHT22;6603;47.066;15.396;2023-07-08T07:21:03;22.50;1.00
13074;DHT22;6603;47.066;15.396;2023-07-08T07:23:29;22.60;99.90
13074;DHT22;6603;47.066;15.396;2023-07-08T07:25:55;22.60;99.90
13074;DHT22;6603;47.066;15.396;2023-07-08T07:28:22;22.60;1.00
13074;DHT22;6603;47.066;15.396;2023-07-08T07:30:56;22.60;99.90
13074;DHT22;6603;47.066;15.396;2023-07-08T07:33:23;22.50;1.00
13074;DHT22;6603;47.066;15.396;2023-07-08T07:35:49;22.50;99.90
13074;DHT22;6603;47.066;15.396;2023-07-08T07:38:17;22.70;34.40
13074;DHT22;6603;47.066;15.396;2023-07-08T07:40:43;22.80;1.00
13074;DHT22;6603;47.066;15.396;2023-07-08T07:43:09;23.00;1.00
13074;DHT22;6603;47.066;15.396;2023-07-08T07:45:36;23.00;1.00
13074;DHT22;6603;47.066;15.396;2023-07-08T07:48:02;23.00;99.90
13074;DHT22;6603;47.066;15.396;2023-07-08T07:50:28;23.10;1.00
13074;DHT22;6603;47.066;15.396;2023-07-08T07:52:54;23.20;1.00
13074;DHT22;6603;47.066;15.396;2023-07-08T07:55:20;23.30;99.90
13074;DHT22;6603;47.066;15.396;2023-07-08T07:57:45;23.50;99.90
13074;DHT22;6603;47.066;15.396;2023-07-08T08:00:13;23.50;1.00
13074;DHT22;6603;47.066;15.396;2023-07-08T08:02:40;23.40;99.90
13074;DHT22;6603;47.066;15.396;2023-07-08T08:05:06;23.50;99.90
13074;DHT22;6603;47.066;15.396;2023-07-08T08:07:32;23.70;99.90
13074;DHT22;6603;47.066;15.396;2023-07-08T08:09:58;23.90;1.00
13074;DHT22;6603;47.066;15.396;2023-07-08T08:12:24;23.90;1.00
13074;DHT22;6603;47.066;15.396;2023-07-08T08:14:51;23.90;1.00
13074;DHT22;6603;47.066;15.396;2023-07-08T08:17:16;23.90;1.00
13074;DHT22;6603;47.066;15.396;2023-07-08T08:19:42;23.90;1.00
13074;DHT22;6603;47.066;15.396;2023-07-08T08:22:08;24.00;1.00
13074;DHT22;6603;47.066;15.396;2023-07-08T08:24:34;23.80;99.90
13074;DHT22;6603;47.066;15.396;2023-07-08T08:27:00;23.80;99.90
13074;DHT22;6603;47.066;15.396;2023-07-08T08:29:25;23.90;99.90
13074;DHT22;6603;47.066;15.396;2023-07-08T08:31:51;24.00;99.90
13074;DHT22;6603;47.066;15.396;2023-07-08T08:34:17;24.10;99.90
13074;DHT22;6603;47.066;15.396;2023-07-08T08:36:43;24.30;99.90
13074;DHT22;6603;47.066;15.396;2023-07-08T08:39:09;24.50;99.90
13074;DHT22;6603;47.066;15.396;2023-07-08T08:41:38;24.60;99.90
13074;DHT22;6603;47.066;15.396;2023-07-08T08:44:06;24.50;95.80
13074;DHT22;6603;47.066;15.396;2023-07-08T08:46:52;24.60;99.90
13074;DHT22;6603;47.066;15.396;2023-07-08T08:49:36;24.70;96.60
13074;DHT22;6603;47.066;15.396;2023-07-08T08:52:03;24.70;1.00
13074;DHT22;6603;47.066;15.396;2023-07-08T08:54:30;24.70;1.00
13074;DHT22;6603;47.066;15.396;2023-07-08T08:57:29;24.80;14.70
13074;DHT22;6603;47.066;15.396;2023-07-08T08:59:58;24.90;1.00
13074;DHT22;6603;47.066;15.396;2023-07-08T09:02:36;25.10;1.00
13074;DHT22;6603;47.066;15.396;2023-07-08T09:05:06;25.30;1.00
13074;DHT22;6603;47.066;15.396;2023-07-08T09:07:47;24.90;1.00
13074;DHT22;6603;47.066;15.396;2023-07-08T09:13:06;25.20;1.00
13074;DHT22;6603;47.066;15.396;2023-07-08T09:15:33;25.40;1.00
13074;DHT22;6603;47.066;15.396;2023-07-08T09:18:25;25.20;1.00
13074;DHT22;6603;47.066;15.396;2023-07-08T09:20:56;25.30;1.00
13074;DHT22;6603;47.066;15.396;2023-07-08T09:23:28;25.40;1.00
13074;DHT22;6603;47.066;15.396;2023-07-08T09:26:02;25.60;1.00
13074;DHT22;6603;47.066;15.396;2023-07-08T09:28:41;25.50;1.00
13074;DHT22;6603;47.066;15.396;2023-07-08T09:31:24;25.80;1.00
13074;DHT22;6603;47.066;15.396;2023-07-08T09:33:52;25.80;1.00
13074;DHT22;6603;47.066;15.396;2023-07-08T09:36:23;25.90;1.00
13074;DHT22;6603;47.066;15.396;2023-07-08T09:38:51;26.00;1.00
13074;DHT22;6603;47.066;15.396;2023-07-08T09:41:33;26.20;1.00
13074;DHT22;6603;47.066;15.396;2023-07-08T09:46:37;26.70;1.00
13074;DHT22;6603;47.066;15.396;2023-07-08T09:51:45;26.40;1.00
13074;DHT22;6603;47.066;15.396;2023-07-08T09:54:12;26.40;1.00
13074;DHT22;6603;47.066;15.396;2023-07-08T09:56:43;26.70;1.00
13074;DHT22;6603;47.066;15.396;2023-07-08T09:59:14;27.10;1.00
13074;DHT22;6603;47.066;15.396;2023-07-08T10:01:42;27.30;1.00
13074;DHT22;6603;47.066;15.396;2023-07-08T10:04:08;27.20;1.00
13074;DHT22;6603;47.066;15.396;2023-07-08T10:06:35;26.90;1.00
13074;DHT22;6603;47.066;15.396;2023-07-08T10:09:11;26.90;1.00
13074;DHT22;6603;47.066;15.396;2023-07-08T10:11:46;26.70;1.00
13074;DHT22;6603;47.066;15.396;2023-07-08T10:16:57;26.80;1.00
13074;DHT22;6603;47.066;15.396;2023-07-08T10:19:23;27.00;1.00
13074;DHT22;6603;47.066;15.396;2023-07-08T10:22:08;27.30;1.00
13074;DHT22;6603;47.066;15.396;2023-07-08T10:27:50;27.10;1.00
13074;DHT22;6603;47.066;15.396;2023-07-08T10:33:05;27.10;1.00
13074;DHT22;6603;47.066;15.396;2023-07-08T10:36:07;27.50;1.00
13074;DHT22;6603;47.066;15.396;2023-07-08T10:46:33;27.90;1.00
13074;DHT22;6603;47.066;15.396;2023-07-08T10:49:32;27.90;1.00
13074;DHT22;6603;47.066;15.396;2023-07-08T10:55:14;28.10;1.00
13074;DHT22;6603;47.066;15.396;2023-07-08T11:00:58;27.60;1.00
13074;DHT22;6603;47.066;15.396;2023-07-08T11:06:37;27.60;1.00
13074;DHT22;6603;47.066;15.396;2023-07-08T11:09:25;28.20;1.00
13074;DHT22;6603;47.066;15.396;2023-07-08T11:11:57;28.30;1.00
13074;DHT22;6603;47.066;15.396;2023-07-08T11:17:24;28.20;1.00
13074;DHT22;6603;47.066;15.396;2023-07-08T11:20:17;28.60;1.00
13074;DHT22;6603;47.066;15.396;2023-07-08T11:25:45;28.80;1.00
13074;DHT22;6603;47.066;15.396;2023-07-08T11:28:17;28.70;1.00
13074;DHT22;6603;47.066;15.396;2023-07-08T11:30:46;28.60;1.00
13074;DHT22;6603;47.066;15.396;2023-07-08T11:33:14;28.30;1.00
13074;DHT22;6603;47.066;15.396;2023-07-08T11:35:46;28.30;1.00
13074;DHT22;6603;47.066;15.396;2023-07-08T11:38:16;28.30;1.00
13074;DHT22;6603;47.066;15.396;2023-07-08T11:41:03;28.60;1.00
13074;DHT22;6603;47.066;15.396;2023-07-08T11:43:59;28.50;1.00
13074;DHT22;6603;47.066;15.396;2023-07-08T11:46:31;28.30;1.00
13074;DHT22;6603;47.066;15.396;2023-07-08T11:49:13;28.40;1.00
13074;DHT22;6603;47.066;15.396;2023-07-08T11:51:44;28.80;1.00
13074;DHT22;6603;47.066;15.396;2023-07-08T11:54:20;28.80;1.00
13074;DHT22;6603;47.066;15.396;2023-07-08T11:57:03;28.90;1.00
13074;DHT22;6603;47.066;15.396;2023-07-08T11:59:33;29.00;1.00
13074;DHT22;6603;47.066;15.396;2023-07-08T12:02:10;29.00;1.00
13074;DHT22;6603;47.066;15.396;2023-07-08T12:04:59;29.30;1.00
13074;DHT22;6603;47.066;15.396;2023-07-08T12:10:06;29.10;1.00
13074;DHT22;6603;47.066;15.396;2023-07-08T12:12:37;29.20;1.00
13074;DHT22;6603;47.066;15.396;2023-07-08T12:15:17;29.30;1.00
13074;DHT22;6603;47.066;15.396;2023-07-08T12:17:43;29.60;1.00
13074;DHT22;6603;47.066;15.396;2023-07-08T12:20:28;29.20;1.00
13074;DHT22;6603;47.066;15.396;2023-07-08T12:22:55;29.50;1.00
13074;DHT22;6603;47.066;15.396;2023-07-08T12:25:24;29.80;1.00
13074;DHT22;6603;47.066;15.396;2023-07-08T12:27:51;29.80;1.00
13074;DHT22;6603;47.066;15.396;2023-07-08T12:30:17;29.80;1.00
13074;DHT22;6603;47.066;15.396;2023-07-08T12:32:44;29.50;1.00
13074;DHT22;6603;47.066;15.396;2023-07-08T12:37:46;29.50;1.00
13074;DHT22;6603;47.066;15.396;2023-07-08T12:40:12;29.70;1.00
13074;DHT22;6603;47.066;15.396;2023-07-08T12:42:40;29.80;1.00
13074;DHT22;6603;47.066;15.396;2023-07-08T12:45:16;29.80;1.00
13074;DHT22;6603;47.066;15.396;2023-07-08T12:47:44;29.80;1.00
13074;DHT22;6603;47.066;15.396;2023-07-08T12:50:11;29.90;1.00
13074;DHT22;6603;47.066;15.396;2023-07-08T12:52:38;29.80;1.00
13074;DHT22;6603;47.066;15.396;2023-07-08T13:14:49;30.10;1.00
13074;DHT22;6603;47.066;15.396;2023-07-08T13:17:15;30.20;1.00
13074;DHT22;6603;47.066;15.396;2023-07-08T13:19:43;30.50;1.00
13074;DHT22;6603;47.066;15.396;2023-07-08T13:22:16;30.40;1.00
13074;DHT22;6603;47.066;15.396;2023-07-08T13:24:43;30.70;1.00
13074;DHT22;6603;47.066;15.396;2023-07-08T13:27:20;30.70;1.00
13074;DHT22;6603;47.066;15.396;2023-07-08T13:29:47;30.70;1.00
13074;DHT22;6603;47.066;15.396;2023-07-08T13:32:13;30.80;1.00
13074;DHT22;6603;47.066;15.396;2023-07-08T13:34:41;31.00;1.00
13074;DHT22;6603;47.066;15.396;2023-07-08T13:37:11;31.00;1.00
13074;DHT22;6603;47.066;15.396;2023-07-08T13:39:43;30.90;1.00
13074;DHT22;6603;47.066;15.396;2023-07-08T13:42:09;30.80;1.00
13074;DHT22;6603;47.066;15.396;2023-07-08T13:44:43;30.60;1.00
13074;DHT22;6603;47.066;15.396;2023-07-08T13:47:27;30.40;1.00
13074;DHT22;6603;47.066;15.396;2023-07-08T13:50:05;30.80;1.00
13074;DHT22;6603;47.066;15.396;2023-07-08T13:52:33;30.90;1.00
13074;DHT22;6603;47.066;15.396;2023-07-08T13:55:01;31.10;1.00
13074;DHT22;6603;47.066;15.396;2023-07-08T13:57:38;31.10;1.00
13074;DHT22;6603;47.066;15.396;2023-07-08T14:00:06;31.00;1.00
13074;DHT22;6603;47.066;15.396;2023-07-08T14:02:35;31.20;1.00
13074;DHT22;6603;47.066;15.396;2023-07-08T14:05:04;30.70;1.00
13074;DHT22;6603;47.066;15.396;2023-07-08T14:07:32;30.80;1.00
13074;DHT22;6603;47.066;15.396;2023-07-08T14:09:59;30.90;1.00
13074;DHT22;6603;47.066;15.396;2023-07-08T14:12:25;30.70;1.00
13074;DHT22;6603;47.066;15.396;2023-07-08T14:14:51;30.90;1.00
13074;DHT22;6603;47.066;15.396;2023-07-08T14:17:27;31.20;1.00
13074;DHT22;6603;47.066;15.396;2023-07-08T14:19:53;31.00;1.00
13074;DHT22;6603;47.066;15.396;2023-07-08T14:22:28;31.00;1.00
13074;DHT22;6603;47.066;15.396;2023-07-08T14:24:55;31.30;1.00
13074;DHT22;6603;47.066;15.396;2023-07-08T14:27:21;31.30;1.00
13074;DHT22;6603;47.066;15.396;2023-07-08T14:29:49;31.20;1.00
13074;DHT22;6603;47.066;15.396;2023-07-08T14:32:28;30.80;1.00
13074;DHT22;6603;47.066;15.396;2023-07-08T14:34:59;30.80;1.00
13074;DHT22;6603;47.066;15.396;2023-07-08T14:37:26;30.80;1.00
13074;DHT22;6603;47.066;15.396;2023-07-08T14:39:52;30.80;1.00
13074;DHT22;6603;47.066;15.396;2023-07-08T14:42:19;31.00;1.00
13074;DHT22;6603;47.066;15.396;2023-07-08T14:44:50;31.10;1.00
13074;DHT22;6603;47.066;15.396;2023-07-08T14:47:18;31.00;1.00
13074;DHT22;6603;47.066;15.396;2023-07-08T14:49:45;30.80;1.00
13074;DHT22;6603;47.066;15.396;2023-07-08T14:52:10;31.00;1.00
13074;DHT22;6603;47.066;15.396;2023-07-08T14:54:36;30.90;1.00
13074;DHT22;6603;47.066;15.396;2023-07-08T14:57:03;30.90;1.00
13074;DHT22;6603;47.066;15.396;2023-07-08T14:59:32;31.20;1.00
13074;DHT22;6603;47.066;15.396;2023-07-08T15:01:59;31.30;1.00
13074;DHT22;6603;47.066;15.396;2023-07-08T15:04:26;31.60;1.00
13074;DHT22;6603;47.066;15.396;2023-07-08T15:06:53;31.70;1.00
13074;DHT22;6603;47.066;15.396;2023-07-08T15:09:20;31.30;1.00
13074;DHT22;6603;47.066;15.396;2023-07-08T15:11:46;31.40;1.00
13074;DHT22;6603;47.066;15.396;2023-07-08T15:14:20;31.50;1.00
13074;DHT22;6603;47.066;15.396;2023-07-08T15:16:50;31.20;1.00
13074;DHT22;6603;47.066;15.396;2023-07-08T15:19:18;31.30;1.00
13074;DHT22;6603;47.066;15.396;2023-07-08T15:21:44;31.40;1.00
13074;DHT22;6603;47.066;15.396;2023-07-08T15:24:12;31.40;1.00
13074;DHT22;6603;47.066;15.396;2023-07-08T15:26:44;31.50;1.00
13074;DHT22;6603;47.066;15.396;2023-07-08T15:29:16;31.50;1.00
13074;DHT22;6603;47.066;15.396;2023-07-08T15:31:44;31.80;1.00
13074;DHT22;6603;47.066;15.396;2023-07-08T15:34:18;31.90;1.00
13074;DHT22;6603;47.066;15.396;2023-07-08T15:36:45;31.60;1.00
13074;DHT22;6603;47.066;15.396;2023-07-08T15:39:11;32.10;1.00
13074;DHT22;6603;47.066;15.396;2023-07-08T15:41:39;32.50;1.00
13074;DHT22;6603;47.066;15.396;2023-07-08T15:44:11;32.40;1.00
13074;DHT22;6603;47.066;15.396;2023-07-08T15:46:49;32.60;1.00
13074;DHT22;6603;47.066;15.396;2023-07-08T15:49:21;32.50;1.00
13074;DHT22;6603;47.066;15.396;2023-07-08T15:51:49;32.80;1.00
13074;DHT22;6603;47.066;15.396;2023-07-08T15:54:16;33.30;1.00
13074;DHT22;6603;47.066;15.396;2023-07-08T15:56:42;33.10;1.00
13074;DHT22;6603;47.066;15.396;2023-07-08T15:59:12;33.20;1.00
13074;DHT22;6603;47.066;15.396;2023-07-08T16:01:39;33.40;1.00
13074;DHT22;6603;47.066;15.396;2023-07-08T16:04:26;33.70;1.00
13074;DHT22;6603;47.066;15.396;2023-07-08T16:06:53;33.90;1.00
13074;DHT22;6603;47.066;15.396;2023-07-08T16:09:19;34.00;1.00
13074;DHT22;6603;47.066;15.396;2023-07-08T16:11:45;34.30;1.00
13074;DHT22;6603;47.066;15.396;2023-07-08T16:14:14;34.20;1.00
13074;DHT22;6603;47.066;15.396;2023-07-08T16:16:41;33.90;1.00
13074;DHT22;6603;47.066;15.396;2023-07-08T16:19:09;34.10;1.00
13074;DHT22;6603;47.066;15.396;2023-07-08T16:21:37;34.00;1.00
13074;DHT22;6603;47.066;15.396;2023-07-08T16:24:04;34.40;1.00
13074;DHT22;6603;47.066;15.396;2023-07-08T16:26:29;34.30;1.00
13074;DHT22;6603;47.066;15.396;2023-07-08T16:28:56;34.30;1.00
13074;DHT22;6603;47.066;15.396;2023-07-08T16:31:24;34.20;1.00
13074;DHT22;6603;47.066;15.396;2023-07-08T16:33:52;34.30;1.00
13074;DHT22;6603;47.066;15.396;2023-07-08T16:36:25;34.10;1.00
13074;DHT22;6603;47.066;15.396;2023-07-08T16:38:52;34.50;1.00
13074;DHT22;6603;47.066;15.396;2023-07-08T16:41:20;34.50;1.00
13074;DHT22;6603;47.066;15.396;2023-07-08T16:43:47;34.40;1.00
13074;DHT22;6603;47.066;15.396;2023-07-08T16:46:15;34.40;1.00
13074;DHT22;6603;47.066;15.396;2023-07-08T16:48:41;34.40;1.00
13074;DHT22;6603;47.066;15.396;2023-07-08T16:51:18;34.60;1.00
13074;DHT22;6603;47.066;15.396;2023-07-08T16:53:46;34.50;1.00
13074;DHT22;6603;47.066;15.396;2023-07-08T16:56:12;34.60;1.00
13074;DHT22;6603;47.066;15.396;2023-07-08T16:58:39;34.20;99.90
13074;DHT22;6603;47.066;15.396;2023-07-08T17:01:11;34.40;1.00
13074;DHT22;6603;47.066;15.396;2023-07-08T17:03:40;34.20;99.90
13074;DHT22;6603;47.066;15.396;2023-07-08T17:06:05;34.70;1.00
13074;DHT22;6603;47.066;15.396;2023-07-08T17:08:31;34.40;1.00
13074;DHT22;6603;47.066;15.396;2023-07-08T17:10:57;34.50;1.00
13074;DHT22;6603;47.066;15.396;2023-07-08T17:13:22;33.90;99.90
13074;DHT22;6603;47.066;15.396;2023-07-08T17:15:48;34.00;99.90
13074;DHT22;6603;47.066;15.396;2023-07-08T17:18:20;34.20;1.00
13074;DHT22;6603;47.066;15.396;2023-07-08T17:20:49;34.30;1.00
13074;DHT22;6603;47.066;15.396;2023-07-08T17:23:19;34.40;99.90
13074;DHT22;6603;47.066;15.396;2023-07-08T17:25:45;34.50;99.90
13074;DHT22;6603;47.066;15.396;2023-07-08T17:28:11;34.20;99.90
13074;DHT22;6603;47.066;15.396;2023-07-08T17:30:42;32.70;99.90
13074;DHT22;6603;47.066;15.396;2023-07-08T17:33:14;31.40;99.90
13074;DHT22;6603;47.066;15.396;2023-07-08T17:35:40;30.50;1.00
13074;DHT22;6603;47.066;15.396;2023-07-08T17:38:14;29.60;1.00
13074;DHT22;6603;47.066;15.396;2023-07-08T17:40:40;29.20;1.00
13074;DHT22;6603;47.066;15.396;2023-07-08T17:43:06;28.70;1.00
13074;DHT22;6603;47.066;15.396;2023-07-08T17:45:36;28.10;1.00
13074;DHT22;6603;47.066;15.396;2023-07-08T17:48:04;27.70;1.00